หน้าหลัก
METAR-TAF:

METAR-TAF

ท่าอากาศยาน :

Rand Airport

Germiston, แอฟริกาใต้

ละติจูด: 26-14-33S, ลองจิจูด: 028-09-04E, ความสูง: 1671 ม.

การสังเกตสภาพอากาศปัจจุบัน

รายงานได้ทำขึ้นเมื่อ 9 ชั่วโมงและ 2 นาทีที่แล้ว ณ เวลา 16:00 UTC
ลม 5 นอตจากตะวันตก/ตะวันตกเฉียงใต้
อุณหภูมิ 22°C
ความชื้น 29%
ความกดอากาศ 1024 hPa
ทัศนวิสัย 10 กม. หรือมากกว่า
ไม่มีเมฆต่ำกว่า 1,500 ม. และไม่มีเมฆคิวมูโลนิมบัส

METAR: FAGM 231600Z 25005KT CAVOK 22/03 Q1024

เวลา: 03:02 (01:02 UTC)


TAF: หายไป

สังเกตการณ์สภาพอากาศและพยากรณ์อากาศของสนามบินมากกว่า 4000 แห่ง (รายงาน METAR และ TAF).

สถานีที่ดูได้จะแสดงไว้ด้วยจุดสีเหลืองและสีแดงบนแผนที่.

เลื่อนเมาส์ไปเหนือจุดเพื่อดูชื่อสถานี.

แล้วคลิกเพื่อดูสังเกตการณ์และการพยากรณ์สภาพอากาศ.

ในการเปลี่ยนแผนที่: คลิกที่ปุ่มสีเขียวที่มีกากบาทสีดำเพื่อซูมเข้า; ที่ปุ่มสีเขียวที่มีขีดเพื่อซูมออก; หรือที่ลูกศรสีเขียวเพื่อไปยังแผนที่ที่อยู่ติดกัน.


METAR-TAF: